Time;durP1;ratioP1;P1;durP2;ratioP2;P2;SDS_P1;SDS_P2;PMS_P1;PMS_P2;Temp;Humidity;BMP_temperature;BMP_pressure;BME280_temperature;BME280_humidity;BME280_pressure;Samples;Min_cycle;Max_cycle;Signal;HPM_P1;HPM_P2
2021/03/08 00:00:24;;;;;;;1.30;1.23;;;0.50;98.00;;;;;;5094763;28;20462;-73
2021/03/08 00:02:52;;;;;;;2.27;1.70;;;0.40;98.00;;;;;;5092316;28;20791;-73
2021/03/08 00:05:19;;;;;;;2.43;1.90;;;0.30;98.00;;;;;;5093542;28;20489;-73
2021/03/08 00:07:48;;;;;;;2.93;2.20;;;0.20;98.00;;;;;;5092329;28;20955;-73
2021/03/08 00:10:16;;;;;;;3.63;2.23;;;0.00;98.00;;;;;;5094804;28;20454;-73
2021/03/08 00:12:43;;;;;;;1.63;1.50;;;-0.10;98.00;;;;;;5092366;28;20935;-73
2021/03/08 00:15:12;;;;;;;6.10;1.87;;;-0.10;98.00;;;;;;5094732;28;20458;-73
2021/03/08 00:17:39;;;;;;;4.40;1.80;;;-0.10;98.00;;;;;;5091748;28;20501;-73
2021/03/08 00:20:07;;;;;;;1.90;1.50;;;-0.10;98.00;;;;;;5094446;28;20570;-73
2021/03/08 00:22:34;;;;;;;1.40;1.27;;;-0.10;98.00;;;;;;5092201;28;20507;-73
2021/03/08 00:25:02;;;;;;;3.70;2.20;;;-0.10;98.00;;;;;;5094294;28;20459;-73
2021/03/08 00:27:28;;;;;;;2.40;1.40;;;-0.10;98.00;;;;;;5091708;28;20510;-73
2021/03/08 00:29:55;;;;;;;2.90;2.60;;;-0.10;98.00;;;;;;5094136;28;20454;-73
2021/03/08 00:32:21;;;;;;;2.20;2.07;;;0.00;98.00;;;;;;5091878;28;20459;-73
2021/03/08 00:34:48;;;;;;;3.57;2.10;;;-0.10;98.00;;;;;;5092781;28;20454;-73
2021/03/08 00:37:14;;;;;;;1.20;1.10;;;-0.20;98.00;;;;;;5091749;28;20846;-73
2021/03/08 00:39:41;;;;;;;1.97;1.87;;;-0.20;98.00;;;;;;5093890;28;20469;-73
2021/03/08 00:42:09;;;;;;;1.50;1.20;;;-0.20;98.00;;;;;;5091533;28;20511;-73
2021/03/08 00:44:35;;;;;;;1.20;1.00;;;0.00;98.00;;;;;;5093864;28;20878;-73
2021/03/08 00:47:02;;;;;;;1.30;1.20;;;0.10;98.00;;;;;;5090705;28;20547;-73
2021/03/08 00:49:31;;;;;;;1.40;1.30;;;0.20;98.00;;;;;;5093792;28;20542;-73
2021/03/08 00:51:57;;;;;;;2.60;2.30;;;0.30;98.00;;;;;;5091686;28;20954;-73
2021/03/08 00:54:24;;;;;;;1.23;1.17;;;0.20;98.00;;;;;;5093941;28;20519;-73
2021/03/08 00:56:52;;;;;;;2.77;1.90;;;0.00;98.00;;;;;;5091147;28;20518;-73
2021/03/08 00:59:22;;;;;;;1.87;1.77;;;-0.10;98.00;;;;;;5093958;28;20461;-72
2021/03/08 01:01:48;;;;;;;1.93;1.63;;;-0.20;98.00;;;;;;5091303;28;20465;-72
2021/03/08 01:04:15;;;;;;;1.20;1.10;;;-0.20;98.00;;;;;;5093715;28;20458;-72
2021/03/08 01:06:41;;;;;;;1.93;1.50;;;-0.20;98.00;;;;;;5091220;28;20922;-73
2021/03/08 01:09:08;;;;;;;1.70;1.50;;;-0.30;98.00;;;;;;5093559;28;21020;-73
2021/03/08 01:11:36;;;;;;;2.13;1.97;;;-0.50;98.00;;;;;;5091252;28;20453;-73
2021/03/08 01:14:02;;;;;;;1.60;1.50;;;-0.40;98.00;;;;;;5093267;28;20462;-73
2021/03/08 01:16:30;;;;;;;1.47;1.27;;;-0.40;98.00;;;;;;5090828;28;20499;-73
2021/03/08 01:18:58;;;;;;;1.20;1.10;;;-0.40;98.00;;;;;;5093282;28;20516;-73
2021/03/08 01:21:25;;;;;;;2.90;2.23;;;-0.50;98.00;;;;;;5089157;28;20856;-73
2021/03/08 01:23:54;;;;;;;2.60;2.20;;;-0.40;98.00;;;;;;5093235;28;20453;-73
2021/03/08 01:26:21;;;;;;;1.23;1.17;;;-0.30;98.00;;;;;;5090507;28;20899;-72
2021/03/08 01:28:47;;;;;;;1.90;1.60;;;-0.20;98.00;;;;;;5093057;28;20940;-72
2021/03/08 01:31:14;;;;;;;1.57;1.30;;;-0.10;98.00;;;;;;5090362;28;20936;-73
2021/03/08 01:33:42;;;;;;;1.70;1.60;;;-0.20;98.00;;;;;;5092871;28;20491;-72
2021/03/08 01:36:08;;;;;;;2.33;2.03;;;-0.40;98.00;;;;;;5090382;28;20458;-72
2021/03/08 01:38:38;;;;;;;1.40;1.33;;;-0.70;98.00;;;;;;5092969;28;20957;-73
2021/03/08 01:41:05;;;;;;;1.83;1.73;;;-0.80;98.00;;;;;;5089147;28;20490;-72
2021/03/08 01:43:31;;;;;;;1.90;1.55;;;-1.00;98.00;;;;;;5092636;28;20462;-73
2021/03/08 01:45:58;;;;;;;2.30;1.70;;;-0.90;98.00;;;;;;5088239;28;20704;-73
2021/03/08 01:48:26;;;;;;;2.13;1.77;;;-0.90;98.00;;;;;;5091873;28;20201;-72
2021/03/08 01:50:53;;;;;;;1.20;1.10;;;-1.00;98.00;;;;;;5089151;28;20457;-73
2021/03/08 01:53:22;;;;;;;4.33;2.87;;;-1.00;98.00;;;;;;5092699;28;20453;-73
2021/03/08 01:55:49;;;;;;;1.93;1.83;;;-0.90;98.00;;;;;;5089848;28;20453;-73
2021/03/08 01:58:17;;;;;;;1.20;1.10;;;-0.70;98.00;;;;;;5092648;28;20511;-73
2021/03/08 02:00:43;;;;;;;1.20;1.00;;;-0.70;98.00;;;;;;5091519;28;20485;-73
2021/03/08 02:03:10;;;;;;;1.73;1.40;;;-0.50;98.00;;;;;;5091536;28;20595;-72
2021/03/08 02:05:43;;;;;;;1.20;1.00;;;-0.50;98.00;;;;;;5092448;28;20522;-72
2021/03/08 02:08:15;;;;;;;1.20;1.17;;;-0.50;98.00;;;;;;5090866;28;20532;-72
2021/03/08 02:10:43;;;;;;;1.83;1.30;;;-0.60;98.00;;;;;;5091143;28;20915;-72
2021/03/08 02:13:54;;;;;;;1.52;1.45;;;-0.90;98.00;;;;;;5090662;28;20450;-72
2021/03/08 02:16:25;;;;;;;3.17;2.20;;;-1.20;98.00;;;;;;5088327;28;20236;-72
2021/03/08 02:19:00;;;;;;;4.13;1.73;;;-1.30;98.00;;;;;;5092238;28;20452;-72
2021/03/08 02:22:04;;;;;;;1.65;1.40;;;-1.50;98.00;;;;;;5089441;28;20205;-72
2021/03/08 02:25:16;;;;;;;1.40;1.30;;;-1.50;98.00;;;;;;5091941;28;20652;-72
2021/03/08 02:27:59;;;;;;;1.65;1.58;;;-1.50;98.00;;;;;;5083009;28;20220;-72
2021/03/08 02:30:46;;;;;;;2.65;1.45;;;-1.40;98.00;;;;;;5091793;28;20202;-72
2021/03/08 02:33:18;;;;;;;1.85;1.85;;;-1.30;98.00;;;;;;5090968;28;20201;-72
2021/03/08 02:35:50;;;;;;;1.65;1.55;;;-1.30;98.00;;;;;;5089993;28;20234;-72
2021/03/08 02:38:21;;;;;;;1.30;1.23;;;-1.40;98.00;;;;;;5091703;28;20245;-72
2021/03/08 02:40:54;;;;;;;1.33;1.20;;;-1.30;98.00;;;;;;5089087;28;20234;-72
2021/03/08 02:43:30;;;;;;;2.37;2.23;;;-1.30;98.00;;;;;;5091990;28;20237;-72
2021/03/08 02:46:01;;;;;;;2.17;1.30;;;-1.20;98.00;;;;;;5089117;28;20493;-72
2021/03/08 02:48:32;;;;;;;1.50;1.40;;;-1.10;98.00;;;;;;5091825;28;20456;-72
2021/03/08 02:51:02;;;;;;;1.45;1.42;;;-1.00;98.00;;;;;;5087995;28;20452;-72
2021/03/08 02:53:40;;;;;;;2.25;1.60;;;-1.10;98.00;;;;;;5091654;28;20199;-72
2021/03/08 02:56:11;;;;;;;2.20;1.53;;;-1.20;98.00;;;;;;5089200;28;20860;-72
2021/03/08 02:58:42;;;;;;;1.33;1.27;;;-1.30;98.00;;;;;;5090736;28;20507;-72
2021/03/08 03:01:10;;;;;;;1.30;1.27;;;-1.30;98.00;;;;;;5071082;28;20553;-72
2021/03/08 03:03:40;;;;;;;1.20;1.10;;;-1.20;98.00;;;;;;5091516;28;20238;-72
2021/03/08 03:06:08;;;;;;;1.30;1.17;;;-1.30;98.00;;;;;;5087699;28;20487;-73
2021/03/08 03:08:38;;;;;;;1.20;1.10;;;-1.40;98.00;;;;;;5091335;28;20491;-72
2021/03/08 03:11:05;;;;;;;1.90;1.80;;;-1.40;98.00;;;;;;5088658;28;20214;-72
2021/03/08 03:13:39;;;;;;;1.20;1.20;;;-1.50;98.00;;;;;;5091290;28;20772;-72
2021/03/08 03:16:08;;;;;;;2.30;2.13;;;-1.60;98.00;;;;;;5088643;28;20808;-72
2021/03/08 03:18:37;;;;;;;1.57;1.53;;;-1.70;98.00;;;;;;5091401;28;20980;-72
2021/03/08 03:21:06;;;;;;;1.73;1.63;;;-1.50;98.00;;;;;;5087452;28;20460;-72
2021/03/08 03:23:36;;;;;;;1.57;1.37;;;-1.30;98.00;;;;;;5091194;28;20730;-72
2021/03/08 03:26:06;;;;;;;1.20;1.10;;;-1.40;98.00;;;;;;5088522;28;20517;-72
2021/03/08 03:28:34;;;;;;;1.20;1.00;;;-1.30;98.00;;;;;;5091237;28;20549;-72
2021/03/08 03:31:01;;;;;;;1.30;1.30;;;-1.50;98.00;;;;;;5088515;28;20206;-73
2021/03/08 03:33:28;;;;;;;2.67;1.85;;;-1.50;98.00;;;;;;5091154;28;20465;-72
2021/03/08 03:35:57;;;;;;;1.88;1.88;;;-1.60;98.00;;;;;;5089839;28;20216;-72
2021/03/08 03:38:24;;;;;;;1.20;1.10;;;-1.70;98.00;;;;;;5091253;28;20221;-72
2021/03/08 03:40:51;;;;;;;1.20;1.20;;;-1.70;98.00;;;;;;5091547;28;20484;-72
2021/03/08 03:43:18;;;;;;;1.50;1.43;;;-1.80;98.00;;;;;;5089516;28;20661;-72
2021/03/08 03:45:45;;;;;;;1.30;1.30;;;-1.90;98.00;;;;;;5091022;28;20500;-72
2021/03/08 03:48:12;;;;;;;1.20;1.10;;;-2.00;98.00;;;;;;5088481;28;20460;-72
2021/03/08 03:50:38;;;;;;;3.28;1.40;;;-2.10;98.00;;;;;;5091079;28;20506;-72
2021/03/08 03:53:07;;;;;;;1.40;1.30;;;-2.20;98.00;;;;;;5088460;28;20244;-72
2021/03/08 03:55:33;;;;;;;1.85;1.85;;;-2.20;98.00;;;;;;5091070;28;20198;-72
2021/03/08 03:58:06;;;;;;;1.75;1.60;;;-2.00;98.00;;;;;;5088521;28;20255;-72
2021/03/08 04:00:41;;;;;;;5.47;2.70;;;-2.00;98.00;;;;;;5091056;28;20198;-72
2021/03/08 04:03:10;;;;;;;1.95;1.52;;;-1.90;98.00;;;;;;5088158;28;20206;-72
2021/03/08 04:05:39;;;;;;;1.85;1.65;;;-1.80;98.00;;;;;;5090756;28;20379;-72
2021/03/08 04:08:09;;;;;;;1.80;1.77;;;-1.70;98.00;;;;;;5088469;28;20294;-72
2021/03/08 04:10:38;;;;;;;2.10;1.52;;;-1.70;98.00;;;;;;5094651;28;20467;-72
2021/03/08 04:13:11;;;;;;;1.50;1.30;;;-1.50;98.00;;;;;;5091604;28;20213;-72
2021/03/08 04:15:39;;;;;;;1.20;1.10;;;-1.50;98.00;;;;;;5094359;28;20242;-72
2021/03/08 04:18:10;;;;;;;1.40;1.30;;;-1.60;98.00;;;;;;5091697;28;20255;-72
2021/03/08 04:20:38;;;;;;;4.60;1.65;;;-1.80;98.00;;;;;;5094064;28;20202;-72
2021/03/08 04:23:10;;;;;;;1.20;1.20;;;-2.00;98.00;;;;;;5091865;28;20249;-72
2021/03/08 04:25:40;;;;;;;1.88;1.73;;;-2.20;98.00;;;;;;5094011;28;20218;-72
2021/03/08 04:28:09;;;;;;;2.40;2.25;;;-2.30;98.00;;;;;;5091557;28;20851;-72
2021/03/08 04:30:36;;;;;;;1.30;1.30;;;-2.30;98.00;;;;;;5094292;28;20259;-72
2021/03/08 04:33:04;;;;;;;1.58;1.40;;;-2.40;98.00;;;;;;5091807;28;20233;-72
2021/03/08 04:35:32;;;;;;;1.20;1.10;;;-2.40;98.00;;;;;;5094425;28;20205;-72
2021/03/08 04:38:00;;;;;;;1.58;1.42;;;-2.40;98.00;;;;;;5091757;28;20664;-72
2021/03/08 04:40:28;;;;;;;1.40;1.35;;;-2.30;98.00;;;;;;5094252;28;20201;-72
2021/03/08 04:42:55;;;;;;;1.45;1.42;;;-2.20;98.00;;;;;;5091969;28;20656;-72
2021/03/08 04:45:22;;;;;;;1.40;1.40;;;-2.10;98.00;;;;;;5093951;28;20248;-72
2021/03/08 04:47:49;;;;;;;1.20;1.20;;;-1.80;98.00;;;;;;5090174;28;20460;-72
2021/03/08 04:50:16;;;;;;;1.50;1.40;;;-1.80;98.00;;;;;;5093958;28;20213;-72
2021/03/08 04:52:48;;;;;;;3.80;2.00;;;-1.90;98.00;;;;;;5091594;28;20205;-72
2021/03/08 04:55:17;;;;;;;1.50;1.30;;;-1.90;98.00;;;;;;5093772;28;20202;-72
2021/03/08 04:57:44;;;;;;;1.52;1.42;;;-1.90;98.00;;;;;;5091322;28;20206;-72
2021/03/08 05:00:13;;;;;;;1.30;1.30;;;-2.10;98.00;;;;;;5093608;28;20567;-72
2021/03/08 05:02:42;;;;;;;1.30;1.20;;;-2.20;98.00;;;;;;5091275;28;20198;-72
2021/03/08 05:05:11;;;;;;;1.55;1.33;;;-2.30;98.00;;;;;;5093603;28;20206;-72
2021/03/08 05:07:40;;;;;;;2.00;1.50;;;-2.30;98.00;;;;;;5091266;28;20248;-72
2021/03/08 05:10:10;;;;;;;2.33;2.15;;;-2.20;98.00;;;;;;5093377;28;20206;-72
2021/03/08 05:12:39;;;;;;;2.38;2.17;;;-2.20;98.00;;;;;;5091040;28;20206;-72
2021/03/08 05:15:11;;;;;;;1.60;1.50;;;-2.50;98.00;;;;;;5093212;28;20206;-72
2021/03/08 05:17:39;;;;;;;2.15;1.48;;;-2.60;98.00;;;;;;5090818;28;20721;-72
2021/03/08 05:20:07;;;;;;;1.50;1.30;;;-2.60;98.00;;;;;;5092300;28;20278;-72
2021/03/08 05:22:36;;;;;;;1.20;1.10;;;-2.70;98.00;;;;;;5090988;28;20209;-72
2021/03/08 05:25:04;;;;;;;2.22;1.83;;;-2.90;98.00;;;;;;5093012;28;20210;-72
2021/03/08 05:27:32;;;;;;;1.30;1.30;;;-2.80;98.00;;;;;;5090942;28;20257;-72
2021/03/08 05:30:00;;;;;;;1.20;1.20;;;-2.90;98.00;;;;;;5092321;28;20206;-72
2021/03/08 05:32:31;;;;;;;2.13;1.60;;;-2.80;98.00;;;;;;5090654;28;20246;-72
2021/03/08 05:35:00;;;;;;;1.95;1.55;;;-2.70;98.00;;;;;;5093256;28;20203;-72
2021/03/08 05:37:27;;;;;;;1.40;1.40;;;-2.70;98.00;;;;;;5090817;28;20565;-72
2021/03/08 05:39:58;;;;;;;3.42;1.95;;;-2.60;98.00;;;;;;5093233;28;20250;-72
2021/03/08 05:42:29;;;;;;;1.20;1.20;;;-2.80;98.00;;;;;;5090569;28;20558;-72
2021/03/08 05:45:02;;;;;;;1.90;1.40;;;-2.60;98.00;;;;;;5092952;28;20239;-72
2021/03/08 05:47:55;;;;;;;1.23;1.20;;;-2.60;98.00;;;;;;5089028;28;20581;-72
2021/03/08 05:50:47;;;;;;;4.03;1.48;;;-2.50;98.00;;;;;;5092806;28;20203;-72
2021/03/08 05:53:49;;;;;;;9.57;2.53;;;-2.40;98.00;;;;;;5090293;28;20202;-72
2021/03/08 05:56:36;;;;;;;2.55;1.98;;;-2.30;98.00;;;;;;5090373;28;20233;-72
2021/03/08 05:59:22;;;;;;;1.95;1.70;;;-2.00;98.00;;;;;;5092520;28;20565;-72
2021/03/08 06:02:11;;;;;;;1.60;1.40;;;-2.10;98.00;;;;;;5090171;28;20201;-72
2021/03/08 06:05:19;;;;;;;3.85;2.95;;;-2.40;98.00;;;;;;5092409;28;20194;-72
2021/03/08 06:08:23;;;;;;;1.20;1.20;;;-2.60;98.00;;;;;;5089727;28;20213;-72
2021/03/08 06:11:05;;;;;;;1.65;1.58;;;-2.70;98.00;;;;;;5092173;28;20209;-72
2021/03/08 06:13:38;;;;;;;1.85;1.40;;;-3.00;98.00;;;;;;5090312;28;20225;-72
2021/03/08 06:16:09;;;;;;;1.85;1.40;;;-2.90;98.00;;;;;;5092196;28;20198;-72
2021/03/08 06:18:45;;;;;;;1.20;1.10;;;-2.80;98.00;;;;;;5091212;28;20213;-72
2021/03/08 06:21:13;;;;;;;1.20;1.10;;;-2.60;98.00;;;;;;5089948;28;20255;-72
2021/03/08 06:23:43;;;;;;;1.75;1.52;;;-2.40;98.00;;;;;;5091976;28;20314;-72
2021/03/08 06:26:15;;;;;;;2.42;1.63;;;-2.40;98.00;;;;;;5091914;28;20726;-72
2021/03/08 06:28:42;;;;;;;1.88;1.77;;;-2.50;98.00;;;;;;5092397;28;20671;-72
2021/03/08 06:31:09;;;;;;;1.42;1.30;;;-2.40;98.00;;;;;;5091647;28;20743;-72
2021/03/08 06:33:37;;;;;;;4.75;2.17;;;-2.20;98.00;;;;;;5090607;28;20225;-72
2021/03/08 06:36:05;;;;;;;2.75;1.90;;;-2.20;98.00;;;;;;5091997;28;20229;-72
2021/03/08 06:38:32;;;;;;;1.63;1.58;;;-2.30;98.00;;;;;;5089466;28;20672;-72
2021/03/08 06:41:00;;;;;;;1.63;1.58;;;-2.10;98.00;;;;;;5091866;28;20206;-72
2021/03/08 06:43:27;;;;;;;2.10;1.80;;;-2.10;98.00;;;;;;5089777;28;20240;-72
2021/03/08 06:45:56;;;;;;;2.30;1.73;;;-2.20;98.00;;;;;;5091545;28;20233;-72
2021/03/08 06:48:22;;;;;;;1.20;1.10;;;-2.40;98.00;;;;;;5089211;28;20327;-72
2021/03/08 06:51:07;;;;;;;2.25;1.42;;;-2.30;98.00;;;;;;5091625;28;20660;-72
2021/03/08 06:53:34;;;;;;;1.50;1.42;;;-2.30;98.00;;;;;;5089089;28;20221;-72
2021/03/08 06:56:20;;;;;;;1.20;1.10;;;-2.20;98.00;;;;;;5091583;28;20238;-72
2021/03/08 06:59:02;;;;;;;1.47;1.47;;;-2.00;98.00;;;;;;5091486;28;20229;-72
2021/03/08 07:01:30;;;;;;;1.50;1.40;;;-1.80;98.00;;;;;;5089234;28;20508;-72
2021/03/08 07:03:58;;;;;;;2.05;1.92;;;-1.90;98.00;;;;;;5090319;28;20628;-72
2021/03/08 07:06:25;;;;;;;1.70;1.43;;;-1.70;98.00;;;;;;5089012;28;20613;-71
2021/03/08 07:09:02;;;;;;;1.80;1.77;;;-1.60;98.00;;;;;;5091430;28;20798;-72
2021/03/08 07:11:30;;;;;;;1.20;1.10;;;-1.50;98.00;;;;;;5087601;28;20212;-72
2021/03/08 07:13:57;;;;;;;2.95;1.95;;;-1.50;98.00;;;;;;5091259;28;20507;-72
2021/03/08 07:16:34;;;;;;;2.60;2.07;;;-1.40;98.00;;;;;;5088615;28;20194;-72
2021/03/08 07:19:02;;;;;;;1.58;1.48;;;-1.50;98.00;;;;;;5091284;28;20484;-72
2021/03/08 07:21:28;;;;;;;3.47;1.85;;;-1.30;98.00;;;;;;5088687;28;20217;-71
2021/03/08 07:24:08;;;;;;;4.00;3.33;;;-1.30;98.00;;;;;;5091529;28;20202;-72
2021/03/08 07:26:36;;;;;;;10.77;3.00;;;-1.10;98.00;;;;;;5088625;28;20238;-69
2021/03/08 07:29:10;;;;;;;1.30;1.10;;;-1.00;98.00;;;;;;5091989;28;20651;-70
2021/03/08 07:31:40;;;;;;;3.50;2.23;;;-1.00;98.00;;;;;;5088990;28;20602;-69
2021/03/08 07:34:09;;;;;;;1.43;1.37;;;-0.90;98.00;;;;;;5091490;28;20509;-69
2021/03/08 07:36:38;;;;;;;1.37;1.27;;;-0.80;98.00;;;;;;5088482;28;20543;-69
2021/03/08 07:39:16;;;;;;;1.40;1.20;;;-0.70;98.00;;;;;;5091319;28;20993;-69
2021/03/08 07:41:54;;;;;;;1.83;1.77;;;-0.90;98.00;;;;;;5088726;28;20464;-69
2021/03/08 07:44:23;;;;;;;4.20;2.28;;;-1.10;98.00;;;;;;5093277;28;20487;-69
2021/03/08 07:46:50;;;;;;;3.67;2.35;;;-1.20;98.00;;;;;;5091295;28;20595;-70
2021/03/08 07:49:17;;;;;;;1.83;1.70;;;-1.20;98.00;;;;;;5094917;28;20198;-69
2021/03/08 07:52:16;;;;;;;1.50;1.40;;;-1.20;98.00;;;;;;5091450;28;20256;-69
2021/03/08 07:54:53;;;;;;;1.70;1.50;;;-1.10;98.00;;;;;;5032068;28;20461;-70
2021/03/08 07:57:21;;;;;;;5.23;2.73;;;-0.90;98.00;;;;;;5083084;28;21296;-70
2021/03/08 07:59:48;;;;;;;2.38;2.13;;;-0.90;98.00;;;;;;5093721;28;20456;-70
2021/03/08 08:02:14;;;;;;;1.20;1.13;;;-0.80;98.00;;;;;;5092322;28;20213;-70
2021/03/08 08:04:41;;;;;;;2.80;2.50;;;-0.70;98.00;;;;;;5094714;28;20455;-70
2021/03/08 08:07:09;;;;;;;1.50;1.35;;;-0.60;98.00;;;;;;5091878;28;21003;-69
2021/03/08 08:09:40;;;;;;;1.20;1.10;;;-0.40;98.00;;;;;;5094821;28;20571;-71
2021/03/08 08:12:10;;;;;;;1.53;1.43;;;-0.30;98.00;;;;;;5092389;28;20534;-71
2021/03/08 08:14:40;;;;;;;1.20;1.10;;;-0.10;98.00;;;;;;5094343;28;21041;-70
2021/03/08 08:17:09;;;;;;;1.60;1.50;;;0.20;98.00;;;;;;5091091;28;20804;-70
2021/03/08 08:19:39;;;;;;;1.93;1.70;;;0.50;98.00;;;;;;5093390;28;20485;-71
2021/03/08 08:22:09;;;;;;;4.13;1.73;;;0.60;98.00;;;;;;5092142;28;20454;-71
2021/03/08 08:24:36;;;;;;;2.53;1.60;;;0.80;98.00;;;;;;5092870;28;20558;-71
2021/03/08 08:27:03;;;;;;;1.40;1.30;;;0.90;98.00;;;;;;5091530;28;20827;-72
2021/03/08 08:29:33;;;;;;;3.43;1.87;;;1.10;98.00;;;;;;5094089;28;20546;-72
2021/03/08 08:32:03;;;;;;;2.67;2.20;;;1.20;98.00;;;;;;5091542;28;20956;-69
2021/03/08 08:34:31;;;;;;;1.50;1.40;;;1.40;98.00;;;;;;5093769;28;20880;-70
2021/03/08 08:37:12;;;;;;;1.67;1.63;;;1.60;98.00;;;;;;5091282;28;20446;-71
2021/03/08 08:39:39;;;;;;;1.33;1.27;;;1.90;98.00;;;;;;5093631;28;20538;-72
2021/03/08 08:42:17;;;;;;;1.37;1.20;;;2.10;98.00;;;;;;5091086;28;20971;-73
2021/03/08 08:44:45;;;;;;;1.40;1.33;;;2.40;98.00;;;;;;5093503;28;20463;-70
2021/03/08 08:47:29;;;;;;;2.60;1.40;;;2.60;98.00;;;;;;5090767;28;20527;-70
2021/03/08 08:49:59;;;;;;;1.30;1.20;;;2.70;98.00;;;;;;5093332;28;21107;-70
2021/03/08 08:52:51;;;;;;;2.87;2.50;;;2.70;98.00;;;;;;5090719;28;20555;-70
2021/03/08 08:55:22;;;;;;;1.43;1.33;;;2.90;98.00;;;;;;5092054;28;20456;-70
2021/03/08 08:58:19;;;;;;;2.60;2.13;;;3.00;98.00;;;;;;5089540;28;20462;-70
2021/03/08 09:01:40;;;;;;;1.63;1.30;;;3.20;98.00;;;;;;5080217;28;20461;-70
2021/03/08 09:04:11;;;;;;;1.30;1.20;;;3.30;97.00;;;;;;5093234;28;20455;-70
2021/03/08 09:06:50;;;;;;;1.60;1.37;;;3.40;96.80;;;;;;5090935;28;20917;-70
2021/03/08 09:09:22;;;;;;;4.03;2.80;;;3.40;97.40;;;;;;5092964;28;20460;-72
2021/03/08 09:11:55;;;;;;;3.93;2.67;;;3.60;96.70;;;;;;5090609;28;20836;-70
2021/03/08 09:14:34;;;;;;;2.97;2.40;;;3.70;96.60;;;;;;5092770;28;20462;-71
2021/03/08 09:17:21;;;;;;;3.13;2.30;;;3.90;96.50;;;;;;5091200;28;20538;-69
2021/03/08 09:19:51;;;;;;;1.53;1.33;;;4.10;95.50;;;;;;5092955;28;20459;-69
2021/03/08 09:22:49;;;;;;;1.40;1.40;;;4.20;95.00;;;;;;5090378;28;20847;-71
2021/03/08 09:25:18;;;;;;;1.37;1.33;;;4.20;95.00;;;;;;5092314;28;20514;-71
2021/03/08 09:27:47;;;;;;;1.80;1.70;;;4.30;94.30;;;;;;5091100;28;20479;-71
2021/03/08 09:30:16;;;;;;;1.67;1.57;;;4.60;94.40;;;;;;5092874;28;20613;-71
2021/03/08 09:32:55;;;;;;;2.03;1.30;;;4.70;94.70;;;;;;5090798;28;20460;-71
2021/03/08 09:35:24;;;;;;;2.20;1.67;;;4.80;93.30;;;;;;5092886;28;20870;-71
2021/03/08 09:37:52;;;;;;;3.40;2.00;;;4.90;93.20;;;;;;5090411;28;20499;-71
2021/03/08 09:40:21;;;;;;;2.37;1.53;;;5.00;92.90;;;;;;5092488;28;20950;-71
2021/03/08 09:42:47;;;;;;;2.77;1.47;;;5.10;92.60;;;;;;5090222;28;21010;-71
2021/03/08 09:45:23;;;;;;;2.17;1.10;;;5.20;91.80;;;;;;5092308;28;20470;-71
2021/03/08 09:47:51;;;;;;;4.47;2.40;;;5.40;91.50;;;;;;5089604;28;20483;-72
2021/03/08 09:50:23;;;;;;;1.80;1.53;;;5.50;91.00;;;;;;5091515;28;20460;-71
2021/03/08 09:52:54;;;;;;;1.67;1.57;;;5.70;91.40;;;;;;5089381;28;20464;-72
2021/03/08 09:55:24;;;;;;;1.30;1.23;;;5.80;90.50;;;;;;5091898;28;20449;-72
2021/03/08 09:57:51;;;;;;;1.83;1.37;;;5.90;90.10;;;;;;5089105;28;20481;-71
2021/03/08 10:00:20;;;;;;;1.60;1.43;;;6.20;88.30;;;;;;5091573;28;20458;-71
2021/03/08 10:02:56;;;;;;;4.93;2.93;;;6.30;87.50;;;;;;5089834;28;20519;-72
2021/03/08 10:05:22;;;;;;;1.67;1.50;;;6.40;88.70;;;;;;5091646;28;20940;-73
2021/03/08 10:07:54;;;;;;;1.23;1.10;;;6.40;88.30;;;;;;5088649;28;20484;-73
2021/03/08 10:10:24;;;;;;;1.67;1.63;;;6.60;88.60;;;;;;5091477;28;20847;-71
2021/03/08 10:12:57;;;;;;;1.73;1.50;;;6.80;85.80;;;;;;5089252;28;20455;-70
2021/03/08 10:15:24;;;;;;;1.40;1.40;;;7.20;87.70;;;;;;5091596;28;20459;-71
2021/03/08 10:17:59;;;;;;;2.87;1.33;;;7.50;85.60;;;;;;5089030;28;20474;-75
2021/03/08 10:20:26;;;;;;;1.97;1.37;;;7.60;84.30;;;;;;5091250;28;20799;-72
2021/03/08 10:22:54;;;;;;;1.60;1.40;;;7.60;83.40;;;;;;5089097;28;20721;-74
2021/03/08 10:25:25;;;;;;;2.53;1.57;;;7.80;84.10;;;;;;5091366;28;20461;-72
2021/03/08 10:28:00;;;;;;;1.50;1.37;;;8.00;82.10;;;;;;5088844;28;20488;-72
2021/03/08 10:30:30;;;;;;;2.53;1.97;;;8.10;81.90;;;;;;5091356;28;20483;-72
2021/03/08 10:33:01;;;;;;;1.90;1.73;;;8.20;82.00;;;;;;5089193;28;20487;-73
2021/03/08 10:35:28;;;;;;;3.67;2.33;;;8.50;80.60;;;;;;5091326;28;20471;-72
2021/03/08 10:37:56;;;;;;;1.63;1.50;;;8.40;80.90;;;;;;5087897;28;20664;-72
2021/03/08 10:40:23;;;;;;;1.50;1.43;;;8.30;80.30;;;;;;5090977;28;20453;-72
2021/03/08 10:42:50;;;;;;;1.30;1.13;;;8.30;80.90;;;;;;5089106;28;20455;-72
2021/03/08 10:45:18;;;;;;;1.60;1.23;;;8.50;79.80;;;;;;5091526;28;20452;-71
2021/03/08 10:48:05;;;;;;;1.40;1.40;;;8.50;80.40;;;;;;5088789;28;20480;-71
2021/03/08 10:50:46;;;;;;;1.60;1.30;;;8.60;79.30;;;;;;5091060;28;20458;-73
2021/03/08 10:53:16;;;;;;;3.10;1.70;;;8.60;79.60;;;;;;5088508;28;20487;-71
2021/03/08 10:55:43;;;;;;;1.63;1.27;;;8.90;79.20;;;;;;5091068;28;20538;-72
2021/03/08 10:58:09;;;;;;;1.40;1.33;;;9.10;79.70;;;;;;5088874;28;20493;-72
2021/03/08 11:00:37;;;;;;;2.00;1.33;;;9.30;78.60;;;;;;5090821;28;20489;-72
2021/03/08 11:03:04;;;;;;;1.20;1.10;;;9.40;77.80;;;;;;5088718;28;20470;-72
2021/03/08 11:05:32;;;;;;;1.50;1.20;;;9.50;76.10;;;;;;5091037;28;20449;-72
2021/03/08 11:08:14;;;;;;;1.30;1.20;;;9.40;75.80;;;;;;5088801;28;20480;-72
2021/03/08 11:10:40;;;;;;;1.83;1.57;;;9.60;75.20;;;;;;5090161;28;20468;-72
2021/03/08 11:13:09;;;;;;;3.67;2.10;;;9.80;74.50;;;;;;5088481;28;20459;-71
2021/03/08 11:15:36;;;;;;;2.77;1.93;;;10.10;74.70;;;;;;5090784;28;20521;-72
2021/03/08 11:18:03;;;;;;;1.70;1.50;;;10.00;74.40;;;;;;5087873;28;20457;-71
2021/03/08 11:20:32;;;;;;;1.40;1.30;;;9.80;75.10;;;;;;5090510;28;20471;-71
2021/03/08 11:23:01;;;;;;;1.53;1.47;;;10.00;74.70;;;;;;5088405;28;20455;-71
2021/03/08 11:25:32;;;;;;;2.23;1.40;;;10.20;73.90;;;;;;5090650;28;20465;-70
2021/03/08 11:28:02;;;;;;;1.80;1.70;;;10.30;73.00;;;;;;5088413;28;20493;-70
2021/03/08 11:30:30;;;;;;;1.30;1.30;;;10.60;72.70;;;;;;5081150;28;20473;-71
2021/03/08 11:32:58;;;;;;;1.50;1.30;;;10.80;73.00;;;;;;5068231;28;20467;-72
2021/03/08 11:35:27;;;;;;;2.47;1.40;;;11.00;71.30;;;;;;5070372;28;20504;-72
2021/03/08 11:37:57;;;;;;;1.30;1.20;;;11.30;70.60;;;;;;5068080;28;20452;-71
2021/03/08 11:40:24;;;;;;;2.77;1.97;;;11.30;70.90;;;;;;5069157;28;20449;-70
2021/03/08 11:42:57;;;;;;;1.43;1.20;;;11.40;70.60;;;;;;5068196;28;20461;-69
2021/03/08 11:45:25;;;;;;;4.53;1.77;;;11.60;69.00;;;;;;5069045;28;20821;-70
2021/03/08 11:47:54;;;;;;;3.33;1.57;;;11.70;68.40;;;;;;5068248;28;20512;-71
2021/03/08 11:50:21;;;;;;;1.40;1.40;;;11.80;68.50;;;;;;5070300;28;20491;-72
2021/03/08 11:52:47;;;;;;;1.30;1.30;;;11.90;68.40;;;;;;5068295;28;20460;-72
2021/03/08 11:55:15;;;;;;;2.20;1.80;;;11.80;67.70;;;;;;5052723;28;20578;-72
2021/03/08 11:57:43;;;;;;;1.20;1.20;;;11.50;67.30;;;;;;5074077;28;20460;-72
2021/03/08 12:00:13;;;;;;;2.13;1.77;;;11.60;67.60;;;;;;5071331;28;20449;-72
2021/03/08 12:02:41;;;;;;;1.70;1.50;;;11.80;68.60;;;;;;5068534;28;20972;-72
2021/03/08 12:05:08;;;;;;;2.03;1.50;;;11.80;67.60;;;;;;5073672;28;20448;-72
2021/03/08 12:07:46;;;;;;;1.90;1.30;;;11.50;67.70;;;;;;5068074;28;20517;-73
2021/03/08 12:10:15;;;;;;;4.20;1.33;;;11.30;67.60;;;;;;5070220;28;20457;-72
2021/03/08 12:12:42;;;;;;;2.07;1.40;;;11.20;67.50;;;;;;5067993;28;20798;-72
2021/03/08 12:15:12;;;;;;;1.30;1.20;;;11.20;67.20;;;;;;5069042;28;20973;-72
2021/03/08 12:17:39;;;;;;;3.43;1.77;;;11.10;68.40;;;;;;5068891;28;20514;-73
2021/03/08 12:20:08;;;;;;;1.93;1.43;;;11.00;67.30;;;;;;5071532;28;20451;-72
2021/03/08 12:22:35;;;;;;;1.77;1.70;;;11.10;68.10;;;;;;5069259;28;20456;-73
2021/03/08 12:25:02;;;;;;;1.47;1.20;;;11.20;67.50;;;;;;5071855;28;20968;-73
2021/03/08 12:27:29;;;;;;;1.40;1.20;;;11.20;67.40;;;;;;5069229;28;20996;-72
2021/03/08 12:29:56;;;;;;;1.20;1.17;;;11.20;67.30;;;;;;5072723;28;20453;-72
2021/03/08 12:32:24;;;;;;;1.70;1.27;;;10.90;67.40;;;;;;5073189;28;20454;-72
2021/03/08 12:34:50;;;;;;;1.20;1.00;;;10.90;66.80;;;;;;5071824;28;20449;-72
2021/03/08 12:37:18;;;;;;;3.83;1.27;;;10.60;66.80;;;;;;5072925;28;20456;-72
2021/03/08 12:39:45;;;;;;;1.20;1.20;;;10.50;67.20;;;;;;5073070;28;20454;-72
2021/03/08 12:42:17;;;;;;;1.20;1.03;;;10.40;67.80;;;;;;5072566;28;20457;-72
2021/03/08 12:44:43;;;;;;;1.30;1.10;;;10.40;68.30;;;;;;5074372;28;20536;-72
2021/03/08 12:47:11;;;;;;;1.80;1.77;;;10.60;68.00;;;;;;5072141;28;21132;-72
2021/03/08 12:49:38;;;;;;;2.17;1.40;;;10.30;66.80;;;;;;5073404;28;20456;-72
2021/03/08 12:52:19;;;;;;;1.20;1.10;;;10.30;66.50;;;;;;5071787;28;20460;-72
2021/03/08 12:54:46;;;;;;;1.43;1.30;;;10.40;66.10;;;;;;5059327;28;20481;-73
2021/03/08 12:57:13;;;;;;;1.50;1.30;;;10.60;65.80;;;;;;5072380;28;20961;-73
2021/03/08 12:59:40;;;;;;;2.27;1.40;;;10.70;65.90;;;;;;5073668;28;20472;-73
2021/03/08 13:02:08;;;;;;;1.90;1.23;;;10.90;66.70;;;;;;5072348;28;21193;-72
2021/03/08 13:04:34;;;;;;;1.47;1.20;;;10.90;66.40;;;;;;5074812;28;20460;-73
2021/03/08 13:07:01;;;;;;;2.70;1.20;;;10.90;65.70;;;;;;5071307;28;20481;-73
2021/03/08 13:09:28;;;;;;;1.50;1.23;;;10.90;65.60;;;;;;5072790;28;20492;-72